createdAt,value
2022-08-18T00:32:35.348Z,0.00
2022-08-18T00:33:35.357Z,0.00
2022-08-18T00:34:35.370Z,0.00
2022-08-18T00:35:35.388Z,0.00
2022-08-18T00:36:35.393Z,0.00
2022-08-18T00:37:35.403Z,0.00
2022-08-18T00:38:35.446Z,0.00
2022-08-18T00:39:38.439Z,0.00
2022-08-18T00:40:37.959Z,0.00
2022-08-18T00:41:35.461Z,0.00
2022-08-18T00:42:35.471Z,0.00
2022-08-18T00:43:35.477Z,0.00
2022-08-18T00:44:35.489Z,0.00
2022-08-18T00:45:35.506Z,0.00
2022-08-18T00:46:35.520Z,0.00
2022-08-18T00:48:48.460Z,0.00
2022-08-18T00:49:43.144Z,0.00
2022-08-18T00:50:43.159Z,0.00
2022-08-18T00:51:43.163Z,0.00
2022-08-18T00:52:43.177Z,0.00
2022-08-18T00:53:43.189Z,0.00
2022-08-18T00:54:43.208Z,0.00
2022-08-18T00:55:43.797Z,0.00
2022-08-18T00:56:43.228Z,0.00
2022-08-18T00:57:43.240Z,0.00
2022-08-18T00:58:43.253Z,0.00
2022-08-18T00:59:43.266Z,0.00
2022-08-18T01:00:43.368Z,0.00
2022-08-18T01:01:43.299Z,0.00
2022-08-18T01:02:43.312Z,0.00
2022-08-18T01:03:43.316Z,0.00
2022-08-18T01:04:43.331Z,0.00
2022-08-18T01:05:43.352Z,0.00
2022-08-18T01:06:43.364Z,0.00
2022-08-18T01:07:43.370Z,0.00
2022-08-18T01:08:43.389Z,0.00
2022-08-18T01:09:43.397Z,0.00
2022-08-18T01:10:43.408Z,0.00
2022-08-18T01:11:43.429Z,0.00
2022-08-18T01:12:45.468Z,0.00
2022-08-18T01:13:43.449Z,0.00
2022-08-18T01:14:43.461Z,0.00
2022-08-18T01:15:43.473Z,0.00
2022-08-18T01:16:56.825Z,0.00
2022-08-18T01:17:43.513Z,0.00
2022-08-18T01:18:43.512Z,0.00
2022-08-18T01:19:43.534Z,0.00
2022-08-18T01:20:43.538Z,0.00
2022-08-18T01:21:43.560Z,0.00
2022-08-18T01:22:43.575Z,0.00
2022-08-18T01:23:43.586Z,0.00
2022-08-18T01:24:43.599Z,0.00
2022-08-18T01:25:43.603Z,0.00
2022-08-18T01:26:44.935Z,0.00
2022-08-18T01:27:43.637Z,0.00
2022-08-18T01:28:43.643Z,0.00
2022-08-18T01:29:43.756Z,0.00
2022-08-18T01:30:43.668Z,0.00
2022-08-18T01:31:54.340Z,0.00
2022-08-18T01:32:43.702Z,0.00
2022-08-18T01:33:43.717Z,0.00
2022-08-18T01:34:43.720Z,0.00
2022-08-18T01:35:43.732Z,0.00
2022-08-18T01:36:43.746Z,0.00
2022-08-18T01:37:43.758Z,0.00
2022-08-18T01:38:43.774Z,0.00
2022-08-18T01:41:21.329Z,0.00
2022-08-18T01:41:24.575Z,0.00
2022-08-18T01:41:43.859Z,0.00
2022-08-18T01:42:43.829Z,0.00
2022-08-18T01:43:43.837Z,0.00
2022-08-18T01:44:43.855Z,0.00
2022-08-18T01:45:43.871Z,0.00
2022-08-18T01:46:43.873Z,0.00
2022-08-18T01:47:48.015Z,0.00
2022-08-18T01:48:43.900Z,0.00
2022-08-18T01:49:43.932Z,0.00
2022-08-18T01:50:43.924Z,0.00
2022-08-18T01:51:43.946Z,0.00
2022-08-18T01:52:43.957Z,0.00
2022-08-18T01:53:43.974Z,0.00
2022-08-18T01:54:43.975Z,0.00
2022-08-18T01:55:43.990Z,0.00
2022-08-18T01:56:44.010Z,0.00
2022-08-18T01:57:44.015Z,0.00
2022-08-18T01:58:44.028Z,0.00
2022-08-18T01:59:44.046Z,0.00
2022-08-18T02:00:44.126Z,0.00
2022-08-18T02:01:48.221Z,0.00
2022-08-18T02:02:44.081Z,0.00
2022-08-18T02:03:44.090Z,0.00
2022-08-18T02:04:44.103Z,0.00
2022-08-18T02:05:44.123Z,0.00
2022-08-18T02:06:47.765Z,0.00
2022-08-18T02:07:49.177Z,0.00
2022-08-18T02:08:46.457Z,0.00
2022-08-18T02:09:44.173Z,0.00
2022-08-18T02:10:44.178Z,0.00
2022-08-18T02:11:44.198Z,0.00
2022-08-18T02:12:44.215Z,0.00
2022-08-18T02:13:44.216Z,0.00
2022-08-18T02:14:44.229Z,0.00
2022-08-18T02:15:44.242Z,0.00
2022-08-18T02:16:44.261Z,0.00
2022-08-18T02:17:44.268Z,0.00
2022-08-18T02:18:47.711Z,0.00
2022-08-18T02:19:44.299Z,0.00
2022-08-18T02:20:44.857Z,0.00
2022-08-18T02:21:44.325Z,0.00
2022-08-18T02:22:44.328Z,0.00
2022-08-18T02:23:46.929Z,0.00
2022-08-18T02:24:44.364Z,0.00
2022-08-18T02:25:44.375Z,0.00
2022-08-18T02:26:44.380Z,0.00
2022-08-18T02:27:44.443Z,0.00
2022-08-18T02:28:44.415Z,0.00
2022-08-18T02:29:44.433Z,0.00
2022-08-18T02:30:44.431Z,0.00
2022-08-18T02:31:44.444Z,0.00
2022-08-18T02:32:44.453Z,0.00
2022-08-18T02:33:51.848Z,0.00
2022-08-18T02:34:44.478Z,0.00
2022-08-18T02:35:44.492Z,0.00
2022-08-18T02:36:44.509Z,0.00
2022-08-18T02:37:44.518Z,0.00
2022-08-18T02:38:44.529Z,0.00
2022-08-18T02:39:44.628Z,0.00
2022-08-18T02:40:44.554Z,0.00
2022-08-18T02:41:44.576Z,0.00
2022-08-18T02:42:44.577Z,0.00
2022-08-18T02:43:44.600Z,0.00
2022-08-18T02:44:44.610Z,0.00
2022-08-18T02:45:44.621Z,0.00
2022-08-18T02:46:44.629Z,0.00
2022-08-18T02:47:44.649Z,0.00
2022-08-18T02:48:44.662Z,0.00
2022-08-18T02:49:44.665Z,0.00
2022-08-18T02:50:44.679Z,0.00
2022-08-18T02:51:44.689Z,0.00
2022-08-18T02:52:44.711Z,0.00
2022-08-18T02:53:44.722Z,0.00
2022-08-18T02:54:44.727Z,0.00
2022-08-18T02:55:44.739Z,0.00
2022-08-18T02:59:10.638Z,0.00
2022-08-18T03:00:10.629Z,0.00
2022-08-18T03:01:10.708Z,0.00
2022-08-18T03:02:10.659Z,0.00
2022-08-18T03:03:10.666Z,0.00
2022-08-18T03:05:23.295Z,0.00
2022-08-18T03:06:23.304Z,0.00
2022-08-18T03:07:23.310Z,0.00
2022-08-18T03:08:23.327Z,0.00
2022-08-18T03:11:01.003Z,0.00
2022-08-18T03:12:01.011Z,0.00
2022-08-18T03:13:01.018Z,0.00
2022-08-18T03:14:01.032Z,0.00
2022-08-18T03:15:01.041Z,0.00
2022-08-18T03:16:01.061Z,0.00
2022-08-18T03:25:29.451Z,0.00
2022-08-18T03:26:29.471Z,0.00
2022-08-18T03:27:29.483Z,0.00
2022-08-18T03:28:29.492Z,0.00
2022-08-18T03:29:32.649Z,4.00
2022-08-18T03:30:29.517Z,4.00
2022-08-18T03:31:29.524Z,0.00
2022-08-18T03:32:29.535Z,0.00
2022-08-18T03:33:29.547Z,4.00
2022-08-18T03:34:29.560Z,4.00
2022-08-18T03:35:29.572Z,4.00
2022-08-18T03:36:29.589Z,4.00
2022-08-18T03:37:29.603Z,8.00
2022-08-18T03:38:29.614Z,8.00
2022-08-18T03:39:29.694Z,8.00
2022-08-18T03:40:29.638Z,8.00
2022-08-18T03:41:57.166Z,12.00
2022-08-18T03:42:29.664Z,16.00
2022-08-18T03:43:51.210Z,16.00
2022-08-18T03:44:29.689Z,20.00
2022-08-18T03:45:29.690Z,24.00
2022-08-18T03:46:29.712Z,28.00
2022-08-18T03:47:29.722Z,36.00
2022-08-18T03:48:29.727Z,40.00
2022-08-18T03:49:29.742Z,44.00
2022-08-18T03:50:29.753Z,48.00
2022-08-18T03:51:29.772Z,56.00
2022-08-18T03:52:29.784Z,56.00
2022-08-18T03:53:29.794Z,64.00
2022-08-18T03:54:29.808Z,72.00
2022-08-18T03:55:29.813Z,76.00
2022-08-18T03:56:29.831Z,84.00
2022-08-18T03:57:29.843Z,96.00
2022-08-18T03:58:29.854Z,100.00
2022-08-18T03:59:29.869Z,112.00
2022-08-18T04:00:29.880Z,120.00
2022-08-18T04:01:29.968Z,132.00
2022-08-18T04:02:29.902Z,140.00
2022-08-18T04:03:29.915Z,152.00
2022-08-18T04:04:29.926Z,160.00
2022-08-18T04:05:29.939Z,176.00
2022-08-18T04:06:30.659Z,184.00
2022-08-18T04:07:29.963Z,200.00
2022-08-18T04:08:29.974Z,216.00
2022-08-18T04:09:29.991Z,232.00
2022-08-18T04:10:29.990Z,248.00
2022-08-18T04:11:30.003Z,268.00
2022-08-18T04:12:30.018Z,284.00
2022-08-18T04:13:30.034Z,304.00
2022-08-18T04:14:30.047Z,320.00
2022-08-18T04:15:30.063Z,340.00
2022-08-18T04:16:30.062Z,368.00
2022-08-18T04:17:30.074Z,392.00
2022-08-18T04:18:30.088Z,424.00
2022-08-18T04:19:30.105Z,456.00
2022-08-18T04:20:30.111Z,488.00
2022-08-18T04:21:30.121Z,520.00
2022-08-18T04:22:30.135Z,556.00
2022-08-18T04:23:30.146Z,596.00
2022-08-18T04:24:31.236Z,632.00
2022-08-18T04:25:32.879Z,676.00
2022-08-18T04:26:30.183Z,716.00
2022-08-18T04:27:30.193Z,756.00
2022-08-18T04:28:30.213Z,804.00
2022-08-18T04:29:30.218Z,852.00
2022-08-18T04:30:30.230Z,896.00
2022-08-18T04:31:30.247Z,944.00
2022-08-18T04:32:30.437Z,984.00
2022-08-18T04:33:30.271Z,1024.00
2022-08-18T04:34:30.275Z,1060.00
2022-08-18T04:35:30.290Z,1096.00
2022-08-18T04:36:30.306Z,1136.00
2022-08-18T04:37:30.312Z,1176.00
2022-08-18T04:38:30.331Z,1204.00
2022-08-18T04:39:30.450Z,1240.00
2022-08-18T04:40:30.447Z,1284.00
2022-08-18T04:41:30.360Z,1324.00
2022-08-18T04:42:30.369Z,1364.00
2022-08-18T04:43:30.390Z,1400.00
2022-08-18T04:44:30.392Z,1440.00
2022-08-18T04:45:30.413Z,1492.00
2022-08-18T04:46:30.424Z,1544.00
2022-08-18T04:47:30.431Z,1604.00
2022-08-18T04:48:30.447Z,1676.00
2022-08-18T04:49:30.452Z,1748.00
2022-08-18T04:50:30.466Z,1816.00
2022-08-18T04:52:36.564Z,1868.00
2022-08-18T04:52:39.847Z,1924.00
2022-08-18T04:53:30.507Z,1972.00
2022-08-18T04:54:30.513Z,2004.00
2022-08-18T04:55:30.532Z,2032.00
2022-08-18T04:56:30.538Z,2052.00
2022-08-18T04:57:33.017Z,2080.00
2022-08-18T04:58:30.568Z,2104.00
2022-08-18T04:59:30.579Z,2120.00
2022-08-18T05:00:30.597Z,2148.00
2022-08-18T05:01:30.687Z,2164.00
2022-08-18T05:02:30.607Z,2196.00
2022-08-18T05:03:30.619Z,2216.00
2022-08-18T05:04:30.633Z,2224.00
2022-08-18T05:05:30.650Z,2240.00
2022-08-18T05:06:30.654Z,2240.00
2022-08-18T05:07:30.679Z,2248.00
2022-08-18T05:08:30.677Z,2264.00
2022-08-18T05:09:30.690Z,2292.00
2022-08-18T05:10:30.708Z,2336.00
2022-08-18T05:11:30.715Z,2396.00
2022-08-18T05:12:30.725Z,2468.00
2022-08-18T05:13:30.746Z,2540.00
2022-08-18T05:14:30.750Z,2628.00
2022-08-18T05:15:46.872Z,2744.00
2022-08-18T05:16:30.772Z,2900.00
2022-08-18T05:17:31.205Z,3080.00
2022-08-18T05:18:30.799Z,3272.00
2022-08-18T05:19:30.808Z,3448.00
2022-08-18T05:20:30.823Z,3580.00
2022-08-18T05:21:30.840Z,3664.00
2022-08-18T05:22:31.765Z,3692.00
2022-08-18T05:23:30.866Z,3672.00
2022-08-18T05:24:37.715Z,3628.00
2022-08-18T05:25:30.891Z,3592.00
2022-08-18T05:26:30.895Z,3576.00
2022-08-18T05:27:30.914Z,3584.00
2022-08-18T05:28:30.918Z,3620.00
2022-08-18T05:29:30.934Z,3664.00
2022-08-18T05:30:30.942Z,3696.00
2022-08-18T05:31:30.962Z,3728.00
2022-08-18T05:32:47.449Z,3740.00
2022-08-18T05:33:30.979Z,3764.00
2022-08-18T05:34:30.991Z,3780.00
2022-08-18T05:35:31.005Z,3756.00
2022-08-18T05:36:31.014Z,3684.00
2022-08-18T05:37:31.030Z,3604.00
2022-08-18T05:38:31.049Z,3508.00
2022-08-18T05:39:31.128Z,3416.00
2022-08-18T05:40:31.072Z,3352.00
2022-08-18T05:41:31.076Z,3292.00
2022-08-18T05:42:31.091Z,3248.00
2022-08-18T05:43:31.100Z,3216.00
2022-08-18T05:44:31.120Z,3208.00
2022-08-18T05:45:31.131Z,3180.00
2022-08-18T05:46:31.139Z,3172.00
2022-08-18T05:47:31.158Z,3176.00
2022-08-18T05:48:31.160Z,3204.00
2022-08-18T05:49:31.181Z,3260.00
2022-08-18T05:50:31.193Z,3332.00
2022-08-18T05:51:31.205Z,3388.00
2022-08-18T05:52:31.215Z,3480.00
2022-08-18T05:53:31.229Z,3604.00
2022-08-18T05:54:31.237Z,3796.00
2022-08-18T05:55:31.247Z,3968.00
2022-08-18T05:56:31.266Z,4232.00
2022-08-18T05:57:31.270Z,4380.00
2022-08-18T05:58:33.526Z,4508.00
2022-08-18T05:59:31.297Z,4564.00
2022-08-18T06:00:31.307Z,4684.00
2022-08-18T06:01:31.323Z,4588.00
2022-08-18T06:02:31.427Z,4736.00
2022-08-18T06:03:44.879Z,4856.00
2022-08-18T06:04:31.367Z,4896.00
2022-08-18T06:05:31.373Z,4900.00
2022-08-18T06:06:31.381Z,4864.00
2022-08-18T06:07:33.397Z,4788.00
2022-08-18T06:08:31.406Z,4700.00
2022-08-18T06:09:31.420Z,4668.00
2022-08-18T06:10:31.437Z,4652.00
2022-08-18T06:11:31.444Z,4592.00
2022-08-18T06:12:31.453Z,4424.00
2022-08-18T06:13:31.476Z,4376.00
2022-08-18T06:14:31.488Z,4408.00
2022-08-18T06:15:31.499Z,4376.00
2022-08-18T06:16:31.511Z,4504.00
2022-08-18T06:17:31.516Z,4632.00
2022-08-18T06:18:31.541Z,4732.00
2022-08-18T06:19:31.550Z,4800.00
2022-08-18T06:20:31.559Z,4852.00
2022-08-18T06:21:34.488Z,4884.00
2022-08-18T06:22:31.691Z,4904.00
2022-08-18T06:23:31.599Z,4928.00
2022-08-18T06:24:31.611Z,4952.00
2022-08-18T06:25:31.614Z,5040.00
2022-08-18T06:26:31.630Z,5184.00
2022-08-18T06:27:31.649Z,5368.00
2022-08-18T06:28:31.654Z,5576.00
2022-08-18T06:29:31.672Z,5812.00
2022-08-18T06:30:31.688Z,6052.00
2022-08-18T06:31:31.692Z,6280.00
2022-08-18T06:32:31.701Z,6492.00
2022-08-18T06:33:31.732Z,6464.00
2022-08-18T06:34:31.728Z,6408.00
2022-08-18T06:35:31.742Z,6440.00
2022-08-18T06:36:31.762Z,6520.00
2022-08-18T06:37:31.768Z,6640.00
2022-08-18T06:38:31.782Z,6756.00
2022-08-18T06:39:31.865Z,6884.00
2022-08-18T06:40:31.810Z,6924.00
2022-08-18T06:41:41.566Z,6860.00
2022-08-18T06:42:31.837Z,6872.00
2022-08-18T06:43:31.851Z,6788.00
2022-08-18T06:44:31.861Z,6900.00
2022-08-18T06:45:33.918Z,6876.00
2022-08-18T06:46:31.880Z,6940.00
2022-08-18T06:47:31.901Z,7004.00
2022-08-18T06:48:31.913Z,7092.00
2022-08-18T06:49:31.924Z,7216.00
2022-08-18T06:50:31.938Z,7328.00
2022-08-18T06:51:31.943Z,7428.00
2022-08-18T06:52:31.959Z,7564.00
2022-08-18T06:53:31.975Z,7708.00
2022-08-18T06:54:31.992Z,7860.00
2022-08-18T06:55:31.997Z,7932.00
2022-08-18T06:56:32.016Z,7964.00
2022-08-18T06:57:32.021Z,8040.00
2022-08-18T06:58:32.033Z,8116.00
2022-08-18T06:59:32.053Z,8244.00
2022-08-18T07:00:32.632Z,8464.00
2022-08-18T07:01:32.146Z,8708.00
2022-08-18T07:02:32.085Z,8980.00
2022-08-18T07:03:32.099Z,9076.00
2022-08-18T07:04:32.117Z,9004.00
2022-08-18T07:05:32.125Z,8964.00
2022-08-18T07:06:32.140Z,9036.00
2022-08-18T07:07:39.922Z,9088.00
2022-08-18T07:08:32.173Z,9136.00
2022-08-18T07:09:32.183Z,9244.00
2022-08-18T07:10:32.202Z,9444.00
2022-08-18T07:11:32.207Z,9724.00
2022-08-18T07:12:32.994Z,10020.00
2022-08-18T07:13:32.229Z,10292.00
2022-08-18T07:14:32.243Z,10532.00
2022-08-18T07:15:32.257Z,10768.00
2022-08-18T07:16:54.988Z,10960.00
2022-08-18T07:17:42.862Z,11104.00
2022-08-18T07:18:32.296Z,11076.00
2022-08-18T07:19:32.311Z,10912.00
2022-08-18T07:20:32.331Z,10804.00
2022-08-18T07:21:32.335Z,10752.00
2022-08-18T07:22:39.387Z,10804.00
2022-08-18T07:23:32.370Z,10832.00
2022-08-18T07:24:32.382Z,10840.00
2022-08-18T07:25:32.390Z,10820.00
2022-08-18T07:26:32.411Z,10836.00
2022-08-18T07:27:32.418Z,10872.00
2022-08-18T07:28:32.435Z,10916.00
2022-08-18T07:29:32.443Z,10976.00
2022-08-18T07:30:32.463Z,11128.00
2022-08-18T07:31:32.472Z,11360.00
2022-08-18T07:32:32.490Z,11680.00
2022-08-18T07:33:32.505Z,12008.00
2022-08-18T07:34:32.511Z,12240.00
2022-08-18T07:35:32.526Z,12324.00
2022-08-18T07:36:32.544Z,12496.00
2022-08-18T07:37:32.567Z,12824.00
2022-08-18T07:38:42.472Z,13200.00
2022-08-18T07:39:32.645Z,12972.00
2022-08-18T07:40:32.602Z,12572.00
2022-08-18T07:41:32.613Z,12296.00
2022-08-18T07:42:53.865Z,12008.00
2022-08-18T07:43:32.643Z,12092.00
2022-08-18T07:44:32.656Z,12272.00
2022-08-18T07:45:32.662Z,12408.00
2022-08-18T07:46:32.678Z,12556.00
2022-08-18T07:47:32.698Z,12660.00
2022-08-18T07:48:40.423Z,12472.00
2022-08-18T07:49:32.725Z,12264.00
2022-08-18T07:50:58.457Z,12056.00
2022-08-18T07:51:37.115Z,11896.00
2022-08-18T07:52:36.099Z,11852.00
2022-08-18T07:53:32.773Z,11956.00
2022-08-18T07:54:49.788Z,12088.00
2022-08-18T07:55:32.802Z,12264.00
2022-08-18T07:56:32.817Z,12500.00
2022-08-18T07:57:32.831Z,12680.00
2022-08-18T07:58:32.852Z,12896.00
2022-08-18T07:59:32.866Z,13228.00
2022-08-18T08:00:57.355Z,13448.00
2022-08-18T08:01:33.585Z,13864.00
2022-08-18T08:02:34.118Z,14280.00
2022-08-18T08:03:32.922Z,14752.00
2022-08-18T08:04:32.926Z,15136.00
2022-08-18T08:05:32.943Z,15460.00
2022-08-18T08:06:32.964Z,15872.00
2022-08-18T08:07:33.383Z,15872.00
2022-08-18T08:08:32.990Z,15580.00
2022-08-18T08:09:33.009Z,15352.00
2022-08-18T08:10:33.013Z,14996.00
2022-08-18T08:11:33.034Z,14568.00
2022-08-18T08:12:36.877Z,14172.00
2022-08-18T08:13:54.157Z,13768.00
2022-08-18T08:14:33.077Z,13512.00
2022-08-18T08:16:15.634Z,13556.00
2022-08-18T08:17:15.655Z,13612.00
2022-08-18T08:18:15.669Z,13604.00
2022-08-18T08:19:15.677Z,13564.00
2022-08-18T08:20:15.690Z,13516.00
2022-08-18T08:21:15.708Z,13500.00
2022-08-18T08:23:23.326Z,14144.00
2022-08-18T08:24:23.341Z,14544.00
2022-08-18T08:29:37.549Z,16864.00
2022-08-18T08:32:00.208Z,17984.00
2022-08-18T08:33:00.217Z,18272.00
2022-08-18T08:45:00.262Z,23840.00
2022-08-18T08:45:52.495Z,29856.00
2022-08-18T08:46:52.508Z,34304.00
2022-08-18T08:47:52.708Z,36000.00
2022-08-18T08:48:52.535Z,38464.00
2022-08-18T08:50:50.132Z,33024.00
2022-08-18T08:51:50.159Z,23424.00
2022-08-18T08:52:50.157Z,35520.00
2022-08-18T08:53:50.988Z,37088.00
2022-08-18T08:54:50.196Z,49088.00
2022-08-18T08:55:50.214Z,34656.00
2022-08-18T08:56:50.226Z,40416.00
2022-08-18T08:57:53.066Z,51360.00
2022-08-18T08:59:32.800Z,53216.00
2022-08-18T09:01:40.508Z,47104.00
2022-08-18T09:02:48.710Z,26976.00
2022-08-18T09:03:40.467Z,36544.00
2022-08-18T09:04:54.723Z,25760.00
2022-08-18T09:06:23.046Z,58848.00
2022-08-18T09:07:23.056Z,58624.00
2022-08-18T09:41:33.203Z,28992.00
2022-08-18T09:42:33.218Z,30880.00
2022-08-18T09:43:33.238Z,39264.00
2022-08-18T09:44:33.256Z,42080.00
2022-08-18T09:46:20.838Z,32192.00
2022-08-18T09:47:20.850Z,64768.00
2022-08-18T11:22:03.339Z,10872.00
2022-08-18T11:23:45.916Z,10720.00
2022-08-18T11:24:46.334Z,10664.00
2022-08-18T11:25:46.126Z,10636.00
2022-08-18T11:30:08.675Z,10616.00
2022-08-18T11:31:08.647Z,10696.00
2022-08-18T11:33:11.707Z,11032.00
2022-08-18T11:34:08.692Z,11348.00
2022-08-18T11:35:08.709Z,11796.00
2022-08-18T11:36:08.732Z,12404.00
2022-08-18T11:43:51.381Z,22176.00
2022-08-18T11:44:51.398Z,24896.00
2022-08-18T11:46:34.740Z,29056.00
2022-08-18T11:47:33.985Z,31680.00
2022-08-18T11:48:39.129Z,33344.00
2022-08-18T11:49:34.184Z,35168.00
2022-08-18T11:50:34.035Z,36992.00
2022-08-18T11:51:34.056Z,37088.00
2022-08-18T11:52:36.685Z,34848.00
2022-08-18T15:30:02.524Z,5852.00
2022-08-18T15:33:32.276Z,6000.00
2022-08-18T15:34:28.434Z,6136.00
2022-08-18T15:35:28.451Z,6324.00
2022-08-18T15:36:29.362Z,6472.00
2022-08-18T15:37:28.474Z,6496.00
2022-08-18T15:38:28.494Z,6440.00
2022-08-18T15:39:28.553Z,6264.00
2022-08-18T15:40:35.521Z,5964.00
2022-08-18T15:49:44.473Z,5496.00
2022-08-18T15:50:44.490Z,5420.00
2022-08-18T15:51:45.325Z,5400.00
2022-08-18T15:52:44.545Z,5388.00
2022-08-18T15:53:45.642Z,5328.00
2022-08-18T15:54:44.545Z,5260.00
2022-08-18T15:55:44.567Z,5288.00
2022-08-18T15:56:44.580Z,5436.00
2022-08-18T15:57:44.587Z,5628.00
2022-08-18T15:58:44.611Z,5800.00
2022-08-18T15:59:44.619Z,5920.00
2022-08-18T16:00:45.639Z,5932.00
2022-08-18T16:01:47.247Z,5736.00
2022-08-18T16:02:48.703Z,5360.00
2022-08-18T16:03:44.688Z,4896.00
2022-08-18T16:04:47.325Z,4460.00
2022-08-18T16:05:44.721Z,4144.00
2022-08-18T16:06:44.736Z,3940.00
2022-08-18T16:07:45.134Z,3844.00
2022-08-18T16:08:44.759Z,3884.00
2022-08-18T16:09:44.791Z,3936.00
2022-08-18T16:10:44.799Z,3940.00
2022-08-18T16:11:44.813Z,3864.00
2022-08-18T16:12:45.918Z,3744.00
2022-08-18T16:13:44.840Z,3620.00
2022-08-18T16:14:44.853Z,3532.00
2022-08-18T16:15:44.866Z,3476.00
2022-08-18T16:16:44.889Z,3432.00
2022-08-18T16:17:44.899Z,3340.00
2022-08-18T16:18:44.923Z,3176.00
2022-08-18T16:19:44.934Z,2932.00
2022-08-18T16:20:44.954Z,2716.00
2022-08-18T16:21:44.963Z,2612.00
2022-08-18T16:22:44.978Z,2540.00
2022-08-18T16:23:44.999Z,2444.00
2022-08-18T16:24:45.012Z,2296.00
2022-08-18T16:25:45.023Z,2116.00
2022-08-18T16:26:45.043Z,1896.00
2022-08-18T16:27:45.060Z,1672.00
2022-08-18T16:28:45.069Z,1496.00
2022-08-18T16:29:45.085Z,1400.00
2022-08-18T16:30:45.101Z,1356.00
2022-08-18T16:31:45.116Z,1316.00
2022-08-18T16:32:45.146Z,1292.00
2022-08-18T16:33:45.146Z,1284.00
2022-08-18T16:34:45.170Z,1284.00
2022-08-18T16:35:45.275Z,1284.00
2022-08-18T16:36:45.192Z,1272.00
2022-08-18T16:37:45.209Z,1272.00
2022-08-18T16:38:47.056Z,1256.00
2022-08-18T16:39:45.280Z,1216.00
2022-08-18T16:40:45.260Z,1168.00
2022-08-18T16:41:45.269Z,1152.00
2022-08-18T16:42:45.292Z,1164.00
2022-08-18T16:43:45.299Z,1196.00
2022-08-18T16:44:45.313Z,1256.00
2022-08-18T16:45:45.339Z,1336.00
2022-08-18T16:46:45.355Z,1428.00
2022-08-18T16:47:45.397Z,1516.00
2022-08-18T16:48:45.378Z,1592.00
2022-08-18T16:49:45.395Z,1668.00
2022-08-18T16:50:45.403Z,1716.00
2022-08-18T16:51:45.427Z,1744.00
2022-08-18T16:52:45.546Z,1740.00
2022-08-18T16:53:45.457Z,1704.00
2022-08-18T16:54:45.470Z,1656.00
2022-08-18T16:55:45.490Z,1596.00
2022-08-18T16:56:45.502Z,1536.00
2022-08-18T16:57:53.797Z,1452.00
2022-08-18T16:58:45.524Z,1336.00
2022-08-18T16:59:45.557Z,1212.00
2022-08-18T17:00:45.553Z,1084.00
2022-08-18T17:01:48.803Z,968.00
2022-08-18T17:02:45.630Z,872.00
2022-08-18T17:03:45.606Z,780.00
2022-08-18T17:04:45.620Z,712.00
2022-08-18T17:05:45.629Z,680.00
2022-08-18T17:06:47.488Z,680.00
2022-08-18T17:07:45.718Z,692.00
2022-08-18T17:08:45.679Z,700.00
2022-08-18T17:09:45.688Z,712.00
2022-08-18T17:10:45.705Z,720.00
2022-08-18T17:11:51.427Z,732.00
2022-08-18T17:12:45.776Z,764.00
2022-08-18T17:13:45.747Z,796.00
2022-08-18T17:14:47.178Z,844.00
2022-08-18T17:15:45.784Z,900.00
2022-08-18T17:16:45.798Z,980.00
2022-08-18T17:17:45.815Z,1060.00
2022-08-18T17:18:45.823Z,1120.00
2022-08-18T17:19:45.844Z,1132.00
2022-08-18T17:20:45.850Z,1132.00
2022-08-18T17:21:45.866Z,1100.00
2022-08-18T17:22:45.918Z,1068.00
2022-08-18T17:23:45.995Z,1048.00
2022-08-18T17:24:48.595Z,1008.00
2022-08-18T17:30:00.149Z,952.00
2022-08-18T17:31:00.143Z,956.00
2022-08-18T17:32:00.166Z,940.00
2022-08-18T17:33:01.249Z,924.00
2022-08-18T17:34:00.194Z,916.00
2022-08-18T17:35:00.204Z,912.00
2022-08-18T17:36:00.223Z,904.00
2022-08-18T17:37:00.232Z,888.00
2022-08-18T17:38:00.252Z,848.00
2022-08-18T17:39:00.260Z,804.00
2022-08-18T17:40:00.368Z,756.00
2022-08-18T17:42:02.882Z,704.00
2022-08-18T17:43:02.904Z,700.00
2022-08-18T17:44:04.327Z,696.00
2022-08-18T17:45:04.237Z,688.00
2022-08-18T17:46:02.947Z,676.00
2022-08-18T17:47:02.963Z,672.00
2022-08-18T17:48:02.976Z,684.00
2022-08-18T17:49:02.985Z,696.00
2022-08-18T17:50:27.101Z,696.00
2022-08-18T17:51:03.018Z,688.00
2022-08-18T17:52:03.238Z,680.00
2022-08-18T17:53:03.044Z,664.00
2022-08-18T18:07:25.762Z,292.00
2022-08-18T18:08:25.775Z,268.00
2022-08-18T18:13:14.293Z,236.00
2022-08-18T18:14:14.307Z,232.00
2022-08-18T18:15:14.319Z,220.00
2022-08-18T18:16:14.335Z,212.00
2022-08-18T18:17:14.524Z,208.00
2022-08-18T18:18:14.364Z,192.00
2022-08-18T18:19:14.378Z,168.00
2022-08-18T18:20:15.539Z,144.00
2022-08-18T18:21:14.399Z,132.00
2022-08-18T18:22:14.412Z,120.00
2022-08-18T18:23:14.435Z,112.00
2022-08-18T18:24:14.440Z,104.00
2022-08-18T18:25:14.461Z,92.00
2022-08-18T18:26:14.471Z,84.00
2022-08-18T18:27:14.483Z,76.00
2022-08-18T18:28:14.499Z,72.00
2022-08-18T18:29:14.514Z,72.00
2022-08-18T18:30:14.525Z,64.00
2022-08-18T18:31:14.540Z,60.00
2022-08-18T18:32:14.552Z,52.00
2022-08-18T18:33:14.567Z,48.00
2022-08-18T18:34:23.598Z,44.00
2022-08-18T18:35:14.604Z,44.00
2022-08-18T18:36:14.610Z,40.00
2022-08-18T18:37:14.632Z,36.00
2022-08-18T18:38:14.652Z,28.00
2022-08-18T18:39:14.654Z,24.00
2022-08-18T18:40:14.711Z,20.00
2022-08-18T18:41:14.687Z,16.00
2022-08-18T18:42:14.695Z,12.00
2022-08-18T18:43:14.741Z,12.00
2022-08-18T18:44:14.722Z,8.00
2022-08-18T18:45:14.736Z,12.00
2022-08-18T18:46:18.580Z,8.00
2022-08-18T18:47:14.765Z,8.00
2022-08-18T18:48:48.146Z,8.00
2022-08-18T18:49:14.792Z,8.00
2022-08-18T18:50:14.812Z,4.00
2022-08-18T18:51:14.828Z,8.00
2022-08-18T18:52:14.833Z,4.00
2022-08-18T18:53:14.847Z,8.00
2022-08-18T18:54:14.861Z,4.00
2022-08-18T18:55:14.881Z,4.00
2022-08-18T18:56:14.889Z,4.00
2022-08-18T18:57:14.908Z,4.00
2022-08-18T18:58:14.917Z,0.00
2022-08-18T18:59:14.938Z,0.00
2022-08-18T19:00:18.179Z,4.00
2022-08-18T19:01:15.022Z,4.00
2022-08-18T19:02:33.671Z,4.00
2022-08-18T19:03:14.994Z,4.00
2022-08-18T19:04:14.999Z,0.00
2022-08-18T19:05:15.014Z,0.00
2022-08-18T19:06:15.028Z,0.00
2022-08-18T19:07:21.092Z,0.00
2022-08-18T19:08:15.054Z,0.00
2022-08-18T19:09:15.073Z,0.00
2022-08-18T19:10:15.083Z,0.00
2022-08-18T19:11:15.099Z,0.00
2022-08-18T19:12:15.110Z,0.00
2022-08-18T19:13:29.934Z,0.00
2022-08-18T19:14:15.145Z,0.00
2022-08-18T19:15:15.154Z,0.00
2022-08-18T19:16:23.769Z,0.00
2022-08-18T19:17:15.189Z,0.00
2022-08-18T19:18:15.203Z,0.00
2022-08-18T19:19:37.050Z,0.00
2022-08-18T19:20:15.221Z,0.00
2022-08-18T19:22:03.774Z,0.00
2022-08-18T19:22:18.723Z,0.00
2022-08-18T19:23:19.558Z,0.00
2022-08-18T19:24:15.276Z,0.00
2022-08-18T19:25:15.296Z,0.00
2022-08-18T19:26:15.312Z,0.00
2022-08-18T19:27:15.328Z,0.00
2022-08-18T19:28:15.332Z,0.00
2022-08-18T19:29:15.345Z,0.00
2022-08-18T19:30:15.366Z,0.00
2022-08-18T19:31:15.383Z,0.00
2022-08-18T19:32:16.787Z,0.00
2022-08-18T19:33:15.401Z,0.00
2022-08-18T19:34:15.414Z,0.00
2022-08-18T19:35:15.436Z,0.00
2022-08-18T19:36:19.552Z,0.00
2022-08-18T19:37:22.671Z,0.00
2022-08-18T19:38:15.471Z,0.00
2022-08-18T19:39:15.484Z,0.00
2022-08-18T19:40:15.503Z,0.00
2022-08-18T19:41:20.152Z,0.00
2022-08-18T19:42:15.524Z,0.00
2022-08-18T19:43:15.545Z,0.00
2022-08-18T19:44:15.562Z,0.00
2022-08-18T19:45:17.208Z,0.00
2022-08-18T19:46:15.582Z,0.00
2022-08-18T19:47:15.593Z,0.00
2022-08-18T19:48:18.221Z,0.00
2022-08-18T19:49:15.621Z,0.00
2022-08-18T19:50:15.636Z,0.00
2022-08-18T19:51:15.648Z,0.00
2022-08-18T19:52:46.387Z,0.00
2022-08-18T19:53:15.677Z,0.00
2022-08-18T19:54:15.691Z,0.00
2022-08-18T19:55:15.704Z,0.00
2022-08-18T19:56:15.716Z,0.00
2022-08-18T19:57:15.740Z,0.00
2022-08-18T19:58:15.753Z,0.00
2022-08-18T19:59:19.605Z,0.00
2022-08-18T20:00:15.771Z,0.00
2022-08-18T20:01:20.981Z,0.00
2022-08-18T20:02:15.808Z,0.00
2022-08-18T20:03:15.815Z,0.00
2022-08-18T20:04:15.834Z,0.00
2022-08-18T20:05:15.842Z,0.00
2022-08-18T20:06:33.849Z,0.00
2022-08-18T20:07:15.876Z,0.00
2022-08-18T20:08:15.901Z,0.00
2022-08-18T20:09:15.903Z,0.00